Terminal Aerodrome Forecast
Issued by NWS

Home | Current Version | Previous Version | Graphics & Text | Print | Product List | Glossary On
Versions: 1 2 3 4 5 6 7 8 9 10 11 12 13 14 15 16 17 18 19 20 21 22 23 24 25 26 27
000
FTUS43 KGRB 232200 AAA
TAFATW
TAF AMD
KATW 232236Z 2323/2418 15006KT 2SM -RA BR OVC007
      TEMPO 2323/2401 1/2SM -RA FG OVC003
     FM240100 11005KT 1SM -RA BR OVC004
     FM240500 04004KT 3/4SM -RA BR OVC003
     FM240900 31005KT 1/2SM -RA FG OVC002
     FM241600 32012G18KT 2SM -RA BR OVC007=

USA.gov is the U.S. government's official web portal to all federal, state and local government web resources and services.